^^
Datos históricos de la estación: Murcia-Puente Tocinos
Diario Informe para Julio 22, 2021 Unidades:  Métrico    Ingés   Ambas
Diario Semanal Mensual Anual
  Máxima: Mínima: Promedio:
Temperatura: 35.2 °C 23.1 °C 28.5 °C
Punto de rocio: 21.8 °C 12.5 °C 17.5 °C
Humedad: 83% 26.2% 55%
Velocidad viento: 22.1km/h 0km/h 9.5km/h
Racha viento: 37km/h - -
Viento- - SE
Presión: 1016.9 hPa 1012.8 hPa -
Precipitación: 0.0 mm    
 
 
Tabla de datos para Julio 22, 2021
Hora Temperatura Punto de rocio Presión Viento Velocidad viento Racha viento Humedad Intensidad lluvia(por hora) Nubes
00:04 25.5 °C 21.2 °C 1016.4 hPa NE 5.8 km/h 10 km/h 77% 0.0 mm
00:09 25.4 °C 21.2 °C 1016.5 hPa NE 6.2 km/h 11.1 km/h 77.9% 0.0 mm
00:14 25.3 °C 21.3 °C 1016.5 hPa NNE 6.5 km/h 11.3 km/h 78.4% 0.0 mm
00:19 25.3 °C 21.4 °C 1016.5 hPa NE 6.4 km/h 9.3 km/h 79% 0.0 mm
00:24 25.3 °C 21.4 °C 1016.5 hPa NNE 6.5 km/h 9.7 km/h 79% 0.0 mm
00:29 25.2 °C 21.3 °C 1016.5 hPa NE 5.5 km/h 8 km/h 79% 0.0 mm
00:34 25.2 °C 21.3 °C 1016.5 hPa NE 4.7 km/h 7.6 km/h 79.2% 0.0 mm
00:39 25.2 °C 21.5 °C 1016.6 hPa NNE 4.6 km/h 8.4 km/h 80% 0.0 mm
00:44 25.2 °C 21.4 °C 1016.6 hPa NNE 4.7 km/h 7.6 km/h 80% 0.0 mm
00:49 25.1 °C 21.4 °C 1016.6 hPa North 4.7 km/h 7.4 km/h 80% 0.0 mm
00:54 25.1 °C 21.4 °C 1016.7 hPa NNO 4.7 km/h 5.8 km/h 80% 0.0 mm
00:59 25.1 °C 21.4 °C 1016.7 hPa NO 3.6 km/h 7.4 km/h 80% 0.0 mm
01:04 25 °C 21.5 °C 1016.7 hPa ONO 2.9 km/h 8.4 km/h 80.9% 0.0 mm
01:09 25 °C 21.5 °C 1016.7 hPa NO 3.5 km/h 8 km/h 81% 0.0 mm
01:14 25 °C 21.5 °C 1016.7 hPa NO 3.9 km/h 6.4 km/h 81% 0.0 mm
01:19 25 °C 21.5 °C 1016.7 hPa NO 3.5 km/h 5.8 km/h 81.2% 0.0 mm
01:24 25.1 °C 21.8 °C 1016.9 hPa NO 3.2 km/h 6.4 km/h 82% 0.0 mm
01:29 25.1 °C 21.8 °C 1016.9 hPa NO 3.2 km/h 6.4 km/h 82% 0.0 mm
01:34 25.1 °C 21.8 °C 1016.9 hPa NO 3.2 km/h 5.8 km/h 82% 0.0 mm
01:39 25 °C 21.6 °C 1016.9 hPa NO 3.6 km/h 7.4 km/h 81.3% 0.0 mm
01:44 24.9 °C 21.5 °C 1016.8 hPa NO 3.9 km/h 8 km/h 81.5% 0.0 mm
01:49 24.9 °C 21.6 °C 1016.8 hPa NO 3.4 km/h 6.4 km/h 82% 0.0 mm
01:54 24.9 °C 21.6 °C 1016.8 hPa NO 2.9 km/h 6.4 km/h 82% 0.0 mm
01:59 24.9 °C 21.7 °C 1016.8 hPa NO 3.1 km/h 7.4 km/h 82.2% 0.0 mm
02:04 24.9 °C 21.6 °C 1016.8 hPa NO 3.2 km/h 8 km/h 82% 0.0 mm
02:09 24.8 °C 21.5 °C 1016.8 hPa NO 3.2 km/h 6.4 km/h 82% 0.0 mm
02:14 24.8 °C 21.6 °C 1016.7 hPa ONO 3.2 km/h 5.8 km/h 82.4% 0.0 mm
02:19 24.8 °C 21.7 °C 1016.7 hPa ONO 3.2 km/h 6.4 km/h 83% 0.0 mm
02:24 24.8 °C 21.7 °C 1016.7 hPa ONO 3.2 km/h 5.6 km/h 83% 0.0 mm
02:29 24.8 °C 21.7 °C 1016.7 hPa ONO 3 km/h 5.8 km/h 83% 0.0 mm
02:34 24.7 °C 21.6 °C 1016.7 hPa ONO 2.9 km/h 6.4 km/h 83% 0.0 mm
02:39 24.7 °C 21.6 °C 1016.7 hPa ONO 2.6 km/h 4.7 km/h 83% 0.0 mm
02:44 24.7 °C 21.6 °C 1016.5 hPa ONO 2.2 km/h 4.8 km/h 83% 0.0 mm
02:49 24.5 °C 21.2 °C 1016.5 hPa ONO 1 km/h 3.9 km/h 81.8% 0.0 mm
02:54 24.4 °C 20.9 °C 1016.5 hPa Calm   4.7 km/h 81% 0.0 mm
02:59 24.3 °C 20.8 °C 1016.4 hPa Sur 1.6 km/h 8.4 km/h 81% 0.0 mm
03:04 24.3 °C 20.8 °C 1016.4 hPa Sur 2.9 km/h 8 km/h 81% 0.0 mm
03:09 24.2 °C 20.6 °C 1016.4 hPa SSE 3.4 km/h 6.4 km/h 80.1% 0.0 mm
03:14 24.3 °C 20.5 °C 1016.3 hPa SSE 3.9 km/h 7.4 km/h 79.3% 0.0 mm
03:19 24.3 °C 20.3 °C 1016.3 hPa SSE 3.5 km/h 8 km/h 78.1% 0.0 mm
03:24 24.4 °C 20.2 °C 1016.3 hPa Sur 3.2 km/h 9.3 km/h 77.5% 0.0 mm
03:29 24.5 °C 20.2 °C 1016.2 hPa Sur 5.1 km/h 11.1 km/h 77% 0.0 mm
03:34 24.6 °C 20.5 °C 1016.2 hPa SSO 6.5 km/h 11.3 km/h 77.9% 0.0 mm
03:39 24.5 °C 20.4 °C 1016.2 hPa SSO 6.7 km/h 11.3 km/h 78.1% 0.0 mm
03:44 24.4 °C 20.1 °C 1016.1 hPa SO 6.9 km/h 11.3 km/h 77.1% 0.0 mm
03:49 24.3 °C 19.9 °C 1016.1 hPa SSO 6.7 km/h 11.3 km/h 76.2% 0.0 mm
03:54 24.3 °C 19.8 °C 1016.1 hPa SSO 6.5 km/h 8.4 km/h 76% 0.0 mm
03:59 24.3 °C 19.6 °C 1015.9 hPa SSO 5.6 km/h 8 km/h 75.2% 0.0 mm
04:04 24.3 °C 19.6 °C 1015.9 hPa SSO 5 km/h 9.3 km/h 75% 0.0 mm
04:09 24.2 °C 19.5 °C 1015.9 hPa SSO 5.5 km/h 9.7 km/h 75% 0.0 mm
04:14 24.2 °C 19.3 °C 1015.9 hPa SSO 5.8 km/h 9.7 km/h 74.2% 0.0 mm
04:19 24.2 °C 19.2 °C 1015.9 hPa SSO 6.1 km/h 11.1 km/h 73.6% 0.0 mm
04:24 24.2 °C 19.1 °C 1015.9 hPa SSO 6.5 km/h 11.3 km/h 73% 0.0 mm
04:29 24.1 °C 18.9 °C 1015.9 hPa SO 6.1 km/h 11.3 km/h 73% 0.0 mm
04:34 24.1 °C 18.9 °C 1015.9 hPa SO 5.8 km/h 11.3 km/h 73% 0.0 mm
04:39 24.2 °C 19.1 °C 1015.9 hPa SO 5.8 km/h 9.7 km/h 73% 0.0 mm
04:44 24.2 °C 19.1 °C 1015.8 hPa SO 5.8 km/h 9.7 km/h 73% 0.0 mm
04:49 24.2 °C 19.1 °C 1015.8 hPa SO 5.1 km/h 8 km/h 73% 0.0 mm
04:54 24.2 °C 19 °C 1015.8 hPa SO 4.7 km/h 9.3 km/h 73% 0.0 mm
04:59 24.1 °C 19.1 °C 1015.7 hPa SO 4.7 km/h 9.7 km/h 73.8% 0.0 mm
05:04 24.1 °C 19.2 °C 1015.7 hPa SO 4.7 km/h 9.7 km/h 74% 0.0 mm
05:09 24 °C 19.1 °C 1015.7 hPa SSO 4.8 km/h 8 km/h 74% 0.0 mm
05:14 24 °C 18.9 °C 1015.7 hPa SO 5 km/h 7.4 km/h 73.4% 0.0 mm
05:19 23.9 °C 18.8 °C 1015.7 hPa SSO 4.4 km/h 8.4 km/h 73% 0.0 mm
05:24 23.9 °C 18.8 °C 1015.7 hPa SSO 3.9 km/h 8 km/h 73% 0.0 mm
05:29 23.9 °C 18.8 °C 1015.6 hPa SSO 4.4 km/h 8.4 km/h 73% 0.0 mm
05:34 23.9 °C 18.8 °C 1015.6 hPa SSO 5 km/h 8.4 km/h 73% 0.0 mm
05:39 23.9 °C 18.8 °C 1015.6 hPa SO 5 km/h 9.5 km/h 73% 0.0 mm
05:44 23.9 °C 18.8 °C 1015.6 hPa SSO 5 km/h 9.7 km/h 73% 0.0 mm
05:49 23.8 °C 18.7 °C 1015.6 hPa SSO 5.4 km/h 11.1 km/h 73% 0.0 mm
05:54 23.8 °C 18.5 °C 1015.6 hPa SSO 5.8 km/h 11.3 km/h 72.3% 0.0 mm
05:59 23.8 °C 18.6 °C 1015.6 hPa SSO 6.4 km/h 11.3 km/h 72.5% 0.0 mm
06:04 23.7 °C 18.6 °C 1015.6 hPa SSO 6.9 km/h 9.7 km/h 73% 0.0 mm
06:09 23.7 °C 18.6 °C 1015.7 hPa SSO 6.9 km/h 11.1 km/h 73% 0.0 mm
06:14 23.7 °C 18.5 °C 1015.7 hPa SSO 6.9 km/h 11.3 km/h 73% 0.0 mm
06:19 23.6 °C 18.5 °C 1015.7 hPa SSO 5.9 km/h 11.1 km/h 73% 0.0 mm
06:24 23.4 °C 18.2 °C 1015.7 hPa Sur 5 km/h 13 km/h 72.3% 0.0 mm
06:29 23.4 °C 18 °C 1015.7 hPa SSO 6.5 km/h 12.9 km/h 72% 0.0 mm
06:34 23.3 °C 17.9 °C 1015.7 hPa SSO 7.6 km/h 11.3 km/h 72% 0.0 mm
06:39 23.3 °C 17.9 °C 1015.8 hPa SSO 7.2 km/h 13 km/h 72% 0.0 mm
06:44 23.3 °C 17.8 °C 1015.8 hPa SSO 6.9 km/h 13 km/h 71.2% 0.0 mm
06:49 23.3 °C 17.7 °C 1015.8 hPa SSO 7.3 km/h 11.9 km/h 71% 0.0 mm
06:54 23.2 °C 17.7 °C 1015.9 hPa SSO 7.6 km/h 11.3 km/h 71% 0.0 mm
06:59 23.2 °C 17.7 °C 1015.9 hPa SO 7.2 km/h 11.3 km/h 71% 0.0 mm
07:04 23.2 °C 17.7 °C 1015.9 hPa SO 6.9 km/h 9.7 km/h 71% 0.0 mm
07:09 23.2 °C 17.6 °C 1015.9 hPa SO 5.9 km/h 11.1 km/h 71% 0.0 mm
07:14 23.1 °C 17.6 °C 1015.9 hPa SO 5 km/h 11.3 km/h 71% 0.0 mm
07:19 23.1 °C 17.5 °C 1015.9 hPa SO 5 km/h 11.3 km/h 71% 0.0 mm
07:24 23.1 °C 17.5 °C 1016.1 hPa SO 5 km/h 8 km/h 71% 0.0 mm
07:29 23.1 °C 17.4 °C 1016.1 hPa SO 4.4 km/h 8.4 km/h 70.3% 0.0 mm
07:34 23.1 °C 17.2 °C 1016.1 hPa SO 3.9 km/h 9.5 km/h 69.6% 0.0 mm
07:39 23.1 °C 17 °C 1016.1 hPa SO 5 km/h 11.1 km/h 68.6% 0.0 mm
07:44 23.1 °C 16.7 °C 1016.1 hPa SO 5.8 km/h 11.3 km/h 67.3% 0.0 mm
07:49 23.2 °C 16.5 °C 1016.1 hPa SO 6.2 km/h 13 km/h 66.1% 0.0 mm
07:54 23.3 °C 16.3 °C 1016.3 hPa SO 6.5 km/h 12.9 km/h 65.2% 0.0 mm
07:59 23.3 °C 16.4 °C 1016.3 hPa SO 6.7 km/h 11.1 km/h 65.4% 0.0 mm
08:04 23.4 °C 16.7 °C 1016.3 hPa SO 6.9 km/h 11.3 km/h 66% 0.0 mm
08:09 23.4 °C 16.9 °C 1016.4 hPa SO 6.9 km/h 11.9 km/h 66.5% 0.0 mm
08:14 23.6 °C 17 °C 1016.4 hPa SO 6.9 km/h 11.3 km/h 66.8% 0.0 mm
08:19 23.7 °C 17.2 °C 1016.4 hPa SO 6.9 km/h 11.9 km/h 67% 0.0 mm
08:24 23.7 °C 17.2 °C 1016.5 hPa SO 6.9 km/h 13 km/h 66.8% 0.0 mm
08:29 23.8 °C 17.1 °C 1016.5 hPa SO 6.9 km/h 13 km/h 66.1% 0.0 mm
08:34 23.8 °C 16.5 °C 1016.5 hPa SO 6.9 km/h 13 km/h 63.3% 0.0 mm
08:39 24 °C 16.4 °C 1016.5 hPa SO 6.3 km/h 12.9 km/h 62.6% 0.0 mm
08:44 24.1 °C 16.3 °C 1016.5 hPa SO 5.8 km/h 10 km/h 61.4% 0.0 mm
08:49 24.3 °C 16.3 °C 1016.5 hPa OSO 5.3 km/h 11.1 km/h 61% 0.0 mm
08:54 24.4 °C 16.4 °C 1016.6 hPa OSO 5 km/h 11.3 km/h 61% 0.0 mm
08:59 24.5 °C 16.2 °C 1016.6 hPa OSO 5.9 km/h 13 km/h 60.2% 0.0 mm
09:04 24.6 °C 16.3 °C 1016.6 hPa OSO 6.5 km/h 13 km/h 60% 0.0 mm
09:09 24.6 °C 16.1 °C 1016.6 hPa OSO 7.5 km/h 12.9 km/h 59% 0.0 mm
09:14 24.8 °C 16.2 °C 1016.6 hPa SO 8.4 km/h 11.3 km/h 58.9% 0.0 mm
09:19 24.9 °C 16.2 °C 1016.6 hPa SO 7.6 km/h 10 km/h 58.2% 0.0 mm
09:24 25.2 °C 16.1 °C 1016.6 hPa SO 6.9 km/h 11.1 km/h 57.4% 0.0 mm
09:29 25.4 °C 16.2 °C 1016.6 hPa SSO 6.9 km/h 11.3 km/h 57% 0.0 mm
09:34 25.6 °C 16.2 °C 1016.6 hPa SSO 6.9 km/h 11.1 km/h 56.2% 0.0 mm
09:39 25.6 °C 16.2 °C 1016.7 hPa SSO 6.9 km/h 11.3 km/h 56% 0.0 mm
09:44 25.7 °C 16.3 °C 1016.7 hPa SSO 6.9 km/h 11.1 km/h 56% 0.0 mm
09:49 25.9 °C 16.4 °C 1016.7 hPa SSO 6.7 km/h 11.9 km/h 55.7% 0.0 mm
09:54 26.2 °C 16.4 °C 1016.7 hPa SO 6.5 km/h 13.7 km/h 55.2% 0.0 mm
09:59 26.3 °C 16.2 °C 1016.7 hPa SO 7.1 km/h 14.5 km/h 53.8% 0.0 mm
10:04 26.5 °C 16.3 °C 1016.7 hPa SO 7.6 km/h 11.3 km/h 53.6% 0.0 mm
10:09 26.8 °C 16.4 °C 1016.8 hPa SSO 6.2 km/h 10.3 km/h 53.1% 0.0 mm
10:14 27 °C 16.3 °C 1016.8 hPa SO 5 km/h 11.3 km/h 52.3% 0.0 mm
10:19 27.1 °C 16.3 °C 1016.8 hPa SSO 5 km/h 11.3 km/h 51.5% 0.0 mm
10:24 27.3 °C 16.1 °C 1016.8 hPa Sur 5 km/h 11.1 km/h 50.5% 0.0 mm
10:29 27.5 °C 15.9 °C 1016.7 hPa SSE 5.4 km/h 11.3 km/h 49.3% 0.0 mm
10:34 27.7 °C 15.8 °C 1016.7 hPa SSO 5.8 km/h 11.1 km/h 48.3% 0.0 mm
10:39 27.8 °C 15.8 °C 1016.7 hPa SSO 6.2 km/h 11.3 km/h 48% 0.0 mm
10:44 28 °C 15.9 °C 1016.6 hPa SSO 6.4 km/h 9.3 km/h 47.6% 0.0 mm
10:49 28.2 °C 15.9 °C 1016.6 hPa Sur 5.7 km/h 9.7 km/h 47% 0.0 mm
10:54 28.6 °C 15.9 °C 1016.6 hPa Sur 5 km/h 8 km/h 46.4% 0.0 mm
10:59 28.9 °C 15.9 °C 1016.6 hPa Sur 4.3 km/h 8.4 km/h 45.4% 0.0 mm
11:04 29.2 °C 16 °C 1016.6 hPa ESE 3.9 km/h 11.1 km/h 45% 0.0 mm
11:09 29.5 °C 15.8 °C 1016.6 hPa Este 4.3 km/h 11.3 km/h 43.4% 0.0 mm
11:14 29.8 °C 15.2 °C 1016.6 hPa NE 4.7 km/h 9.5 km/h 41.1% 0.0 mm
11:19 30.1 °C 14.6 °C 1016.6 hPa North 4.8 km/h 9.7 km/h 39% 0.0 mm
11:24 30.3 °C 14.8 °C 1016.6 hPa ENE 5 km/h 7.6 km/h 39% 0.0 mm
11:29 30.4 °C 15.1 °C 1016.5 hPa NNO 4.4 km/h 10 km/h 39.6% 0.0 mm
11:34 30.6 °C 15.5 °C 1016.5 hPa NE 3.9 km/h 10.3 km/h 40% 0.0 mm
11:39 30.8 °C 15.4 °C 1016.5 hPa NNE 4.5 km/h 11.3 km/h 39.3% 0.0 mm
11:44 30.9 °C 15.4 °C 1016.5 hPa NNE 5 km/h 13 km/h 39.2% 0.0 mm
11:49 30.9 °C 15.4 °C 1016.5 hPa NNE 5.5 km/h 12.9 km/h 39% 0.0 mm
11:54 31.1 °C 15.4 °C 1016.5 hPa NNE 5.8 km/h 13.7 km/h 38.8% 0.0 mm
11:59 31.1 °C 15.5 °C 1016.5 hPa NNE 6.4 km/h 14.5 km/h 39% 0.0 mm
12:04 31.2 °C 15.3 °C 1016.5 hPa NE 6.9 km/h 15.6 km/h 38.2% 0.0 mm
12:09 31.3 °C 14.9 °C 1016.5 hPa NE 6.9 km/h 16.1 km/h 37% 0.0 mm
12:14 31.3 °C 15 °C 1016.3 hPa NE 6.9 km/h 16.1 km/h 37.3% 0.0 mm
12:19 31.6 °C 14.9 °C 1016.3 hPa NNE 7.3 km/h 15.6 km/h 36.4% 0.0 mm
12:24 31.5 °C 14.9 °C 1016.3 hPa NE 7.6 km/h 16.1 km/h 36.6% 0.0 mm
12:29 31.6 °C 15.1 °C 1016.3 hPa NNE 8.2 km/h 14.8 km/h 37% 0.0 mm
12:34 31.8 °C 14.6 °C 1016.3 hPa North 8.7 km/h 17.2 km/h 35.2% 0.0 mm
12:39 32.1 °C 13.9 °C 1016.3 hPa North 8.7 km/h 18 km/h 33.2% 0.0 mm
12:44 32.3 °C 14.3 °C 1016.1 hPa NNE 8.7 km/h 18.5 km/h 33.8% 0.0 mm
12:49 32.4 °C 14.8 °C 1016.1 hPa NE 9.4 km/h 19 km/h 34.6% 0.0 mm
12:54 32.4 °C 15.1 °C 1016.1 hPa NNE 10 km/h 19.3 km/h 35.2% 0.0 mm
12:59 32.5 °C 15.2 °C 1015.9 hPa NNE 9.7 km/h 17.2 km/h 35.2% 0.0 mm
13:04 32.6 °C 15.4 °C 1015.9 hPa North 9.5 km/h 17.7 km/h 35.4% 0.0 mm
13:09 32.8 °C 15.4 °C 1015.9 hPa NE 9.7 km/h 16.7 km/h 35.2% 0.0 mm
13:14 32.9 °C 15.6 °C 1015.7 hPa NNE 10 km/h 24.1 km/h 35.4% 0.0 mm
13:19 33.1 °C 15.8 °C 1015.7 hPa NNE 11 km/h 24.1 km/h 35.4% 0.0 mm
13:24 33.3 °C 16 °C 1015.7 hPa NNE 11.9 km/h 22.5 km/h 35.7% 0.0 mm
13:29 33.4 °C 16.2 °C 1015.4 hPa NNE 12.6 km/h 20.9 km/h 35.7% 0.0 mm
13:34 33.7 °C 16.7 °C 1015.4 hPa NNE 13 km/h 24.1 km/h 36.3% 0.0 mm
13:39 33.9 °C 16.9 °C 1015.4 hPa NE 11.3 km/h 24.1 km/h 36.3% 0.0 mm
13:44 34.2 °C 16 °C 1015.2 hPa NE 10 km/h 22.2 km/h 33.9% 0.0 mm
13:49 34.4 °C 15.7 °C 1015.2 hPa NNE 11.1 km/h 27.8 km/h 32.7% 0.0 mm
13:54 34.6 °C 15.8 °C 1015.2 hPa NE 11.9 km/h 27.4 km/h 32.8% 0.0 mm
13:59 34.7 °C 13.5 °C 1015.2 hPa NE 11.4 km/h 27.8 km/h 28.1% 0.0 mm
14:04 34.8 °C 13.4 °C 1015.2 hPa NE 11.1 km/h 29.1 km/h 27.6% 0.0 mm
14:09 34.8 °C 13.6 °C 1015.2 hPa NE 13.7 km/h 29.6 km/h 28.1% 0.0 mm
14:14 34.7 °C 13.6 °C 1015.1 hPa NE 15.6 km/h 29 km/h 28.2% 0.0 mm
14:19 34.7 °C 12.5 °C 1015.1 hPa NE 15.9 km/h 29.6 km/h 26.2% 0.0 mm
14:24 34.9 °C 13 °C 1015.1 hPa NE 16.1 km/h 26.2 km/h 26.8% 0.0 mm
14:29 34.9 °C 12.9 °C 1014.9 hPa NE 15.8 km/h 29.8 km/h 26.6% 0.0 mm
14:34 35 °C 12.8 °C 1014.9 hPa NE 15.6 km/h 29.6 km/h 26.3% 0.0 mm
14:39 35.2 °C 13.4 °C 1014.9 hPa NE 14.7 km/h 27.8 km/h 27.1% 0.0 mm
14:44 35.1 °C 13.5 °C 1014.7 hPa NE 14 km/h 24.5 km/h 27.4% 0.0 mm
14:49 35.1 °C 13.7 °C 1014.7 hPa NE 14.8 km/h 29.1 km/h 27.8% 0.0 mm
14:54 34.9 °C 13 °C 1014.7 hPa NE 15.6 km/h 29.6 km/h 26.7% 0.0 mm
14:59 34.9 °C 13.1 °C 1014.7 hPa NE 15.9 km/h 29 km/h 27.1% 0.0 mm
15:04 35 °C 13.1 °C 1014.7 hPa NE 16.1 km/h 27.8 km/h 26.8% 0.0 mm
15:09 34.9 °C 13.2 °C 1014.7 hPa NE 16.1 km/h 27.4 km/h 27.1% 0.0 mm
15:14 35.1 °C 13.4 °C 1014.4 hPa NE 16.1 km/h 24.1 km/h 27.3% 0.0 mm
15:19 35.2 °C 12.9 °C 1014.4 hPa NNE 13.9 km/h 24.5 km/h 26.3% 0.0 mm
15:24 35.2 °C 13.5 °C 1014.4 hPa NE 12.2 km/h 26.2 km/h 27.3% 0.0 mm
15:29 35.1 °C 13.8 °C 1014.3 hPa NE 13.7 km/h 29.6 km/h 27.9% 0.0 mm
15:34 35 °C 14.1 °C 1014.3 hPa NE 14.8 km/h 29 km/h 28.6% 0.0 mm
15:39 35.1 °C 14.3 °C 1014.3 hPa NE 15.3 km/h 29.6 km/h 29% 0.0 mm
15:44 35 °C 14.3 °C 1014.2 hPa NE 15.6 km/h 28.2 km/h 29% 0.0 mm
15:49 34.8 °C 14.2 °C 1014.2 hPa NE 16.4 km/h 27.8 km/h 29% 0.0 mm
15:54 34.8 °C 14.2 °C 1014.2 hPa NE 17.2 km/h 28.2 km/h 29.1% 0.0 mm
15:59 34.9 °C 14.7 °C 1014.0 hPa NNE 16.6 km/h 25.1 km/h 29.9% 0.0 mm
16:04 34.9 °C 14.3 °C 1014.0 hPa NE 16.1 km/h 32.3 km/h 29.1% 0.0 mm
16:09 34.7 °C 14.2 °C 1014.0 hPa NE 17.4 km/h 33.8 km/h 29.2% 0.0 mm
16:14 34.7 °C 14.3 °C 1013.9 hPa NE 18.4 km/h 33.8 km/h 29.6% 0.0 mm
16:19 34.8 °C 14 °C 1013.9 hPa NE 17.7 km/h 30.6 km/h 28.7% 0.0 mm
16:24 34.9 °C 14 °C 1013.9 hPa NE 17.2 km/h 29.6 km/h 28.5% 0.0 mm
16:29 34.9 °C 13.7 °C 1013.8 hPa NNE 17.2 km/h 29.6 km/h 28.1% 0.0 mm
16:34 34.8 °C 13.6 °C 1013.8 hPa NNE 17.2 km/h 32.8 km/h 28% 0.0 mm
16:39 34.8 °C 13.7 °C 1013.8 hPa NE 18.7 km/h 33.8 km/h 28.1% 0.0 mm
16:44 34.8 °C 13.8 °C 1013.7 hPa NE 20.1 km/h 33.8 km/h 28.4% 0.0 mm
16:49 34.8 °C 13.7 °C 1013.7 hPa NNE 18.5 km/h 31.7 km/h 28.2% 0.0 mm
16:54 34.7 °C 14.1 °C 1013.7 hPa NNE 17.2 km/h 32.2 km/h 29% 0.0 mm
16:59 34.8 °C 14 °C 1013.6 hPa NE 18.7 km/h 37 km/h 28.8% 0.0 mm
17:04 34.6 °C 14 °C 1013.6 hPa NE 19.8 km/h 37 km/h 28.9% 0.0 mm
17:09 34.5 °C 14 °C 1013.6 hPa NE 20 km/h 32.2 km/h 29.2% 0.0 mm
17:14 34.6 °C 14.1 °C 1013.5 hPa NE 20.1 km/h 29 km/h 29.3% 0.0 mm
17:19 34.6 °C 13.6 °C 1013.5 hPa NE 18.5 km/h 29.6 km/h 28.3% 0.0 mm
17:24 34.7 °C 14.1 °C 1013.5 hPa NE 17.2 km/h 29 km/h 29.1% 0.0 mm
17:29 34.7 °C 14.3 °C 1013.4 hPa NNE 16.3 km/h 32.3 km/h 29.6% 0.0 mm
17:34 34.5 °C 14.5 °C 1013.4 hPa NNE 15.6 km/h 33.8 km/h 30.3% 0.0 mm
17:39 34.4 °C 14.3 °C 1013.4 hPa NE 17.8 km/h 32.2 km/h 30% 0.0 mm
17:44 34.3 °C 14.3 °C 1013.4 hPa NE 19.8 km/h 29.6 km/h 30% 0.0 mm
17:49 34.4 °C 14.6 °C 1013.4 hPa NE 18.4 km/h 29 km/h 30.5% 0.0 mm
17:54 34.4 °C 14.1 °C 1013.4 hPa NE 17.2 km/h 30.6 km/h 29.7% 0.0 mm
17:59 34.3 °C 14.2 °C 1013.3 hPa NE 18.7 km/h 32.3 km/h 29.9% 0.0 mm
18:04 34.2 °C 14.3 °C 1013.3 hPa NE 19.8 km/h 35.2 km/h 30.3% 0.0 mm
18:09 34.1 °C 14.1 °C 1013.3 hPa NE 20 km/h 35.4 km/h 30.1% 0.0 mm
18:14 34 °C 14.3 °C 1013.2 hPa NE 20.1 km/h 35.9 km/h 30.7% 0.0 mm
18:19 33.9 °C 14.2 °C 1013.2 hPa NE 21.2 km/h 35.4 km/h 30.6% 0.0 mm
18:24 33.8 °C 14.6 °C 1013.2 hPa NE 22.1 km/h 33.8 km/h 31.6% 0.0 mm
18:29 33.8 °C 14.2 °C 1013.2 hPa NE 21.5 km/h 31.7 km/h 30.7% 0.0 mm
18:34 33.8 °C 14 °C 1013.2 hPa NE 20.9 km/h 32.2 km/h 30.3% 0.0 mm
18:39 33.8 °C 13.8 °C 1013.2 hPa NE 19.9 km/h 33.3 km/h 30% 0.0 mm
18:44 33.7 °C 13.6 °C 1013.0 hPa NE 19 km/h 34.3 km/h 29.7% 0.0 mm
18:49 33.6 °C 13.4 °C 1013.0 hPa NE 20.1 km/h 33.8 km/h 29.6% 0.0 mm
18:54 33.4 °C 14.4 °C 1013.0 hPa NE 20.9 km/h 27.8 km/h 31.9% 0.0 mm
18:59 33.4 °C 14.6 °C 1013.0 hPa NE 19.4 km/h 29.8 km/h 32.3% 0.0 mm
19:04 33.4 °C 14.9 °C 1013.0 hPa NE 18.4 km/h 30.6 km/h 32.9% 0.0 mm
19:09 33.3 °C 14.4 °C 1013.0 hPa NE 18.2 km/h 29.6 km/h 31.9% 0.0 mm
19:14 33.3 °C 15.1 °C 1012.9 hPa NE 18 km/h 29.1 km/h 33.4% 0.0 mm
19:19 33.2 °C 15.5 °C 1012.9 hPa NE 17.2 km/h 31.7 km/h 34.7% 0.0 mm
19:24 33 °C 16.1 °C 1012.9 hPa NE 16.4 km/h 32.2 km/h 36.5% 0.0 mm
19:29 32.8 °C 16.2 °C 1012.9 hPa NE 15.6 km/h 29.8 km/h 36.9% 0.0 mm
19:34 32.7 °C 15.6 °C 1012.9 hPa NE 14.8 km/h 30.6 km/h 35.8% 0.0 mm
19:39 32.7 °C 16.2 °C 1012.9 hPa NE 16.1 km/h 27.4 km/h 37.3% 0.0 mm
19:44 32.7 °C 16.6 °C 1012.8 hPa NE 17.2 km/h 24.1 km/h 38.4% 0.0 mm
19:49 32.5 °C 17 °C 1012.8 hPa NE 15.2 km/h 22.5 km/h 39.7% 0.0 mm
19:54 32.3 °C 17.4 °C 1012.8 hPa NNE 13.7 km/h 22.5 km/h 41.1% 0.0 mm
19:59 32.1 °C 17.7 °C 1012.8 hPa NNE 13.9 km/h 22.5 km/h 42.2% 0.0 mm
20:04 31.9 °C 17.8 °C 1012.8 hPa NE 14 km/h 22.5 km/h 43.1% 0.0 mm
20:09 31.7 °C 18.2 °C 1012.9 hPa NNE 13.8 km/h 22.5 km/h 44.6% 0.0 mm
20:14 31.4 °C 18.2 °C 1012.9 hPa NNE 13.7 km/h 22.5 km/h 45.2% 0.0 mm
20:19 31.3 °C 18.3 °C 1012.9 hPa NNE 13.7 km/h 22.5 km/h 46% 0.0 mm
20:24 31.1 °C 18.4 °C 1013.1 hPa NNE 13.7 km/h 24.1 km/h 46.9% 0.0 mm
20:29 30.8 °C 18.5 °C 1013.1 hPa NNE 14.7 km/h 24.1 km/h 48% 0.0 mm
20:34 30.7 °C 18.6 °C 1013.1 hPa NNE 15.6 km/h 24.5 km/h 48.7% 0.0 mm
20:39 30.5 °C 18.6 °C 1013.1 hPa NNE 15.2 km/h 24.1 km/h 49% 0.0 mm
20:44 30.3 °C 18.4 °C 1013.1 hPa NNE 14.8 km/h 20.4 km/h 49% 0.0 mm
20:49 30.2 °C 18.5 °C 1013.1 hPa NNE 13.4 km/h 18.5 km/h 49.7% 0.0 mm
20:54 30 °C 18.6 °C 1013.3 hPa NNE 12.2 km/h 24.1 km/h 50.3% 0.0 mm
20:59 29.8 °C 18.8 °C 1013.3 hPa NNE 14.3 km/h 24.5 km/h 51.8% 0.0 mm
21:04 29.6 °C 19.1 °C 1013.3 hPa NNE 15.6 km/h 24.5 km/h 53.3% 0.0 mm
21:09 29.3 °C 19.3 °C 1013.4 hPa NNE 15.6 km/h 25.9 km/h 54.9% 0.0 mm
21:14 29.2 °C 19.7 °C 1013.4 hPa NNE 15.6 km/h 25.7 km/h 56.7% 0.0 mm
21:19 28.9 °C 19.9 °C 1013.4 hPa NE 15.1 km/h 22.5 km/h 58.4% 0.0 mm
21:24 28.7 °C 20.1 °C 1013.5 hPa NNE 14.8 km/h 22.5 km/h 59.7% 0.0 mm
21:29 28.6 °C 20.3 °C 1013.5 hPa NE 13.3 km/h 20.9 km/h 60.9% 0.0 mm
21:34 28.3 °C 20.3 °C 1013.5 hPa NE 12.2 km/h 20.4 km/h 61.9% 0.0 mm
21:39 28.2 °C 20.5 °C 1013.6 hPa NE 12.2 km/h 20.1 km/h 62.9% 0.0 mm
21:44 28.1 °C 20.6 °C 1013.6 hPa NE 12.2 km/h 23.3 km/h 63.9% 0.0 mm
21:49 27.9 °C 20.5 °C 1013.6 hPa NE 13 km/h 24.1 km/h 64% 0.0 mm
21:54 27.8 °C 20.6 °C 1013.8 hPa NE 13.7 km/h 24.1 km/h 64.8% 0.0 mm
21:59 27.7 °C 20.8 °C 1013.8 hPa NE 12.6 km/h 19.3 km/h 66% 0.0 mm
22:04 27.6 °C 21 °C 1013.8 hPa NE 11.9 km/h 19.3 km/h 67.2% 0.0 mm
22:09 27.4 °C 21.1 °C 1014.1 hPa NE 11.9 km/h 19.3 km/h 68.5% 0.0 mm
22:14 27.3 °C 21.3 °C 1014.1 hPa NE 11.9 km/h 16.7 km/h 69.6% 0.0 mm
22:19 27.3 °C 21.3 °C 1014.1 hPa NE 10.8 km/h 16.1 km/h 70.1% 0.0 mm
22:24 27.2 °C 21.5 °C 1014.2 hPa NE 10 km/h 15.6 km/h 71% 0.0 mm
22:29 27 °C 21.5 °C 1014.2 hPa NE 9.2 km/h 16.1 km/h 71.8% 0.0 mm
22:34 26.9 °C 21.5 °C 1014.2 hPa NNE 8.7 km/h 14.5 km/h 72.4% 0.0 mm
22:39 26.9 °C 21.6 °C 1014.5 hPa NE 7.8 km/h 12.9 km/h 73% 0.0 mm
22:44 26.8 °C 21.6 °C 1014.5 hPa NNE 6.9 km/h 9.5 km/h 73.3% 0.0 mm
22:49 26.7 °C 21.7 °C 1014.5 hPa NNE 6.7 km/h 10 km/h 74% 0.0 mm
22:54 26.7 °C 21.6 °C 1014.6 hPa NNE 6.5 km/h 9.7 km/h 74% 0.0 mm
22:59 26.6 °C 21.6 °C 1014.6 hPa NNE 6.1 km/h 9.7 km/h 74.4% 0.0 mm
23:04 26.4 °C 21.7 °C 1014.6 hPa NE 5.8 km/h 11.1 km/h 75% 0.0 mm
23:09 26.4 °C 21.6 °C 1014.7 hPa NE 6.1 km/h 11.3 km/h 75% 0.0 mm
23:14 26.3 °C 21.5 °C 1014.7 hPa NNE 6.5 km/h 11.1 km/h 75% 0.0 mm
23:19 26.3 °C 21.5 °C 1014.7 hPa NE 6.5 km/h 11.3 km/h 75% 0.0 mm
23:24 26.3 °C 21.5 °C 1014.9 hPa NNE 6.4 km/h 8.4 km/h 75% 0.0 mm
23:29 26.3 °C 21.5 °C 1014.9 hPa North 5.4 km/h 8 km/h 75% 0.0 mm
23:34 26.2 °C 21.4 °C 1014.9 hPa NNO 4.7 km/h 7.6 km/h 75.1% 0.0 mm
23:39 26.2 °C 21.6 °C 1014.9 hPa North 4.6 km/h 8 km/h 76% 0.0 mm
23:44 26.2 °C 21.6 °C 1014.9 hPa North 4.7 km/h 7.6 km/h 76% 0.0 mm
23:49 26.1 °C 21.6 °C 1014.9 hPa NNO 4.2 km/h 8 km/h 76% 0.0 mm
23:54 26.1 °C 21.5 °C 1014.9 hPa NNO 3.9 km/h 9.3 km/h 76% 0.0 mm
23:59 26 °C 21.5 °C 1014.7 hPa NNE 3.9 km/h 7.6 km/h 76.3% 0.0 mm
Murcia-Puente Tocinos, España
Compliments of Weather Underground - 3 mb

La estación de MeteoMurcia.com, publica sus datos en los siguientes proyectos:

Weather Underground PWS IMURCIAP2 Meteoclimatic www.awekas.at

W3Counter
Web Analytics